createdAt,value
2023-01-02T00:00:45.617Z,-5.70
2023-01-02T00:03:13.885Z,-5.80
2023-01-02T00:05:42.264Z,-5.80
2023-01-02T00:08:10.567Z,-5.80
2023-01-02T00:10:38.753Z,-5.80
2023-01-02T00:13:08.688Z,-5.70
2023-01-02T00:15:39.819Z,-6.00
2023-01-02T00:18:08.038Z,-6.00
2023-01-02T00:20:36.436Z,-6.00
2023-01-02T00:23:05.184Z,-6.00
2023-01-02T00:25:35.043Z,-6.00
2023-01-02T00:28:03.628Z,-6.00
2023-01-02T00:30:37.911Z,-6.00
2023-01-02T00:33:08.182Z,-6.10
2023-01-02T00:35:38.635Z,-6.20
2023-01-02T00:38:06.888Z,-6.10
2023-01-02T00:40:35.264Z,-5.90
2023-01-02T00:43:03.414Z,-6.00
2023-01-02T00:45:34.459Z,-5.90
2023-01-02T00:48:02.686Z,-6.00
2023-01-02T00:50:32.397Z,-6.00
2023-01-02T00:53:00.554Z,-6.10
2023-01-02T00:55:28.773Z,-6.20
2023-01-02T00:57:57.051Z,-6.20
2023-01-02T01:00:25.186Z,-6.10
2023-01-02T01:02:56.408Z,-6.10
2023-01-02T01:05:24.915Z,-6.00
2023-01-02T01:07:54.870Z,-5.90
2023-01-02T01:10:23.229Z,-5.90
2023-01-02T01:12:51.479Z,-5.90
2023-01-02T01:15:19.754Z,-5.80
2023-01-02T01:17:49.191Z,-5.80
2023-01-02T01:20:17.521Z,-5.90
2023-01-02T01:22:45.695Z,-5.90
2023-01-02T01:25:15.322Z,-5.90
2023-01-02T01:27:43.449Z,-6.00
2023-01-02T01:30:12.882Z,-5.90
2023-01-02T01:32:41.198Z,-5.90
2023-01-02T01:35:09.325Z,-5.90
2023-01-02T01:37:39.111Z,-5.90
2023-01-02T01:40:10.288Z,-5.90
2023-01-02T01:42:39.956Z,-5.80
2023-01-02T01:45:17.061Z,-5.80
2023-01-02T01:47:46.574Z,-5.80
2023-01-02T01:50:16.453Z,-5.60
2023-01-02T01:52:46.443Z,-5.60
2023-01-02T01:55:16.218Z,-5.70
2023-01-02T01:57:46.679Z,-5.70
2023-01-02T02:00:15.177Z,-5.70
2023-01-02T02:02:45.431Z,-5.60
2023-01-02T02:05:16.640Z,-5.20
2023-01-02T02:07:47.042Z,-5.10
2023-01-02T02:10:15.380Z,-5.10
2023-01-02T02:12:43.506Z,-5.10
2023-01-02T02:15:16.437Z,-5.10
2023-01-02T02:17:51.144Z,-5.30
2023-01-02T02:20:27.167Z,-5.40
2023-01-02T02:23:22.325Z,-5.40
2023-01-02T02:26:08.102Z,-5.10
2023-01-02T02:28:50.875Z,-4.70
2023-01-02T02:31:25.192Z,-4.70
2023-01-02T02:33:56.696Z,-4.80
2023-01-02T02:36:28.542Z,-5.00
2023-01-02T02:39:00.312Z,-5.00
2023-01-02T02:41:34.719Z,-4.90
2023-01-02T02:44:06.603Z,-4.90
2023-01-02T02:46:39.684Z,-4.90
2023-01-02T02:49:09.590Z,-4.80
2023-01-02T02:51:38.954Z,-4.70
2023-01-02T02:54:10.574Z,-4.60
2023-01-02T02:56:38.884Z,-4.40
2023-01-02T02:59:07.059Z,-4.30
2023-01-02T03:01:38.945Z,-4.20
2023-01-02T03:04:14.798Z,-4.20
2023-01-02T03:06:50.786Z,-4.30
2023-01-02T03:09:20.518Z,-4.20
2023-01-02T03:11:55.279Z,-4.20
2023-01-02T03:14:25.872Z,-4.10
2023-01-02T03:16:56.183Z,-4.10
2023-01-02T03:19:28.961Z,-4.00
2023-01-02T03:21:58.817Z,-4.00
2023-01-02T03:24:27.345Z,-4.00
2023-01-02T03:26:58.421Z,-4.00
2023-01-02T03:29:34.143Z,-4.00
2023-01-02T03:32:03.028Z,-4.00
2023-01-02T03:34:34.034Z,-4.10
2023-01-02T03:37:04.118Z,-4.00
2023-01-02T03:39:33.878Z,-3.90
2023-01-02T03:42:04.919Z,-3.80
2023-01-02T03:44:38.534Z,-3.70
2023-01-02T03:47:10.199Z,-3.60
2023-01-02T03:49:41.173Z,-3.50
2023-01-02T03:52:09.458Z,-3.40
2023-01-02T03:54:40.661Z,-3.30
2023-01-02T03:57:11.757Z,-3.40
2023-01-02T03:59:42.714Z,-3.20
2023-01-02T04:02:16.511Z,-3.30
2023-01-02T04:04:51.305Z,-3.20
2023-01-02T04:07:21.864Z,-3.10
2023-01-02T04:09:51.041Z,-3.00
2023-01-02T04:12:23.006Z,-3.10
2023-01-02T04:14:52.337Z,-3.00
2023-01-02T04:17:22.549Z,-3.10
2023-01-02T04:19:54.143Z,-3.00
2023-01-02T04:22:23.867Z,-3.00
2023-01-02T04:24:54.462Z,-2.90
2023-01-02T04:27:24.784Z,-2.90
2023-01-02T04:29:53.031Z,-2.70
2023-01-02T04:32:24.446Z,-2.40
2023-01-02T04:34:55.249Z,-2.30
2023-01-02T04:37:30.816Z,-2.50
2023-01-02T04:40:01.195Z,-2.60
2023-01-02T04:42:29.560Z,-2.80
2023-01-02T04:44:57.678Z,-2.80
2023-01-02T04:47:28.188Z,-2.80
2023-01-02T04:49:57.866Z,-2.70
2023-01-02T04:52:26.114Z,-2.40
2023-01-02T04:54:54.237Z,-2.40
2023-01-02T04:57:22.661Z,-2.30
2023-01-02T04:59:50.786Z,-2.30
2023-01-02T05:02:19.055Z,-2.40
2023-01-02T05:04:47.431Z,-2.40
2023-01-02T05:07:17.202Z,-2.40
2023-01-02T05:09:45.458Z,-2.40
2023-01-02T05:12:13.611Z,-2.20
2023-01-02T05:14:42.053Z,-2.30
2023-01-02T05:17:10.324Z,-2.40
2023-01-02T05:19:38.542Z,-2.10
2023-01-02T05:22:24.308Z,-2.00
2023-01-02T05:24:53.933Z,-1.90
2023-01-02T05:27:22.211Z,-1.70
2023-01-02T05:29:50.371Z,-1.60
2023-01-02T05:32:18.613Z,-1.30
2023-01-02T05:34:46.998Z,-1.20
2023-01-02T05:37:15.178Z,-1.10
2023-01-02T05:39:43.270Z,-1.20
2023-01-02T05:42:13.043Z,-1.00
2023-01-02T05:44:41.169Z,-0.80
2023-01-02T05:47:13.433Z,-0.60
2023-01-02T05:49:44.443Z,-0.30
2023-01-02T05:52:12.689Z,-0.10
2023-01-02T05:54:41.032Z,-0.10
2023-01-02T05:57:09.192Z,0.00
2023-01-02T05:59:38.823Z,0.00
2023-01-02T06:02:07.259Z,-0.10
2023-01-02T06:04:35.709Z,-0.10
2023-01-02T06:07:03.900Z,-0.20
2023-01-02T06:09:32.205Z,-0.30
2023-01-02T06:12:00.482Z,-0.20
2023-01-02T06:14:28.660Z,-0.30
2023-01-02T06:16:58.276Z,-0.10
2023-01-02T06:19:26.482Z,-0.20
2023-01-02T06:21:54.653Z,0.00
2023-01-02T06:24:22.821Z,0.20
2023-01-02T06:26:51.199Z,0.10
2023-01-02T06:29:19.304Z,0.20
2023-01-02T06:31:51.260Z,0.20
2023-01-02T06:34:21.499Z,0.30
2023-01-02T06:36:49.670Z,0.30
2023-01-02T06:39:18.014Z,0.40
2023-01-02T06:41:46.206Z,0.40
2023-01-02T06:44:14.672Z,0.50
2023-01-02T06:46:42.883Z,0.60
2023-01-02T06:49:11.217Z,0.60
2023-01-02T06:51:40.742Z,0.80
2023-01-02T06:54:08.822Z,0.80
2023-01-02T06:56:37.206Z,0.80
2023-01-02T06:59:05.327Z,0.90
2023-01-02T07:01:33.591Z,0.90
2023-01-02T07:04:01.910Z,1.00
2023-01-02T07:06:30.031Z,1.10
2023-01-02T07:08:59.742Z,1.20
2023-01-02T07:11:28.129Z,1.20
2023-01-02T07:13:56.937Z,1.20
2023-01-02T07:16:25.591Z,1.20
2023-01-02T07:18:54.177Z,1.30
2023-01-02T07:21:22.624Z,1.30
2023-01-02T07:23:50.779Z,1.40
2023-01-02T07:26:20.405Z,1.40
2023-01-02T07:28:48.721Z,1.40
2023-01-02T07:31:17.626Z,1.40
2023-01-02T07:33:48.377Z,1.40
2023-01-02T07:36:17.449Z,1.60
2023-01-02T07:38:45.740Z,1.50
2023-01-02T07:41:15.722Z,1.70
2023-01-02T07:43:47.826Z,1.60
2023-01-02T07:46:16.971Z,1.60
2023-01-02T07:48:45.441Z,1.60
2023-01-02T07:51:16.423Z,1.60
2023-01-02T07:53:46.623Z,1.60
2023-01-02T07:56:14.846Z,1.50
2023-01-02T07:58:43.119Z,1.50
2023-01-02T08:01:13.990Z,1.60
2023-01-02T08:03:42.471Z,1.50
2023-01-02T08:06:11.775Z,1.70
2023-01-02T08:08:43.151Z,1.70
2023-01-02T08:11:12.204Z,1.80
2023-01-02T08:13:40.638Z,1.80
2023-01-02T08:16:10.153Z,1.60
2023-01-02T08:18:39.882Z,1.70
2023-01-02T08:21:08.415Z,1.70
2023-01-02T08:23:37.129Z,1.80
2023-01-02T08:26:06.119Z,1.70
2023-01-02T08:28:34.627Z,1.80
2023-01-02T08:31:03.192Z,1.90
2023-01-02T08:33:31.542Z,1.90
2023-01-02T08:36:02.014Z,1.80
2023-01-02T08:38:30.239Z,1.90
2023-01-02T08:40:58.927Z,1.90
2023-01-02T08:43:27.349Z,2.00
2023-01-02T08:45:55.830Z,2.10
2023-01-02T08:48:23.968Z,2.00
2023-01-02T08:50:52.299Z,2.10
2023-01-02T08:53:22.041Z,2.10
2023-01-02T08:55:50.134Z,2.10
2023-01-02T08:58:21.297Z,2.10
2023-01-02T09:00:49.446Z,2.10
2023-01-02T09:03:17.843Z,2.20
2023-01-02T09:05:45.963Z,2.30
2023-01-02T09:08:14.107Z,2.20
2023-01-02T09:10:43.735Z,2.20
2023-01-02T09:13:11.877Z,2.30
2023-01-02T09:15:40.026Z,2.30
2023-01-02T09:18:08.436Z,2.30
2023-01-02T09:20:40.730Z,2.40
2023-01-02T09:23:11.664Z,2.40
2023-01-02T09:25:44.098Z,2.40
2023-01-02T09:28:12.178Z,2.40
2023-01-02T09:30:40.393Z,2.30
2023-01-02T09:33:09.185Z,2.40
2023-01-02T09:35:38.591Z,2.40
2023-01-02T09:38:06.776Z,2.40
2023-01-02T09:40:35.241Z,2.50
2023-01-02T09:43:04.815Z,2.50
2023-01-02T09:45:33.132Z,2.50
2023-01-02T09:48:01.709Z,2.50
2023-01-02T09:50:31.591Z,2.50
2023-01-02T09:53:00.923Z,2.50
2023-01-02T09:55:37.159Z,2.50
2023-01-02T09:58:11.994Z,2.50
2023-01-02T10:00:40.600Z,2.50
2023-01-02T10:03:14.639Z,2.50
2023-01-02T10:06:00.840Z,2.60
2023-01-02T10:08:33.810Z,2.60
2023-01-02T10:11:07.896Z,2.60
2023-01-02T10:14:17.413Z,2.60
2023-01-02T10:16:38.170Z,2.60
2023-01-02T10:19:11.431Z,2.60
2023-01-02T10:21:40.331Z,2.60
2023-01-02T10:24:15.480Z,2.50
2023-01-02T10:26:45.676Z,2.60
2023-01-02T10:29:17.981Z,2.50
2023-01-02T10:31:48.424Z,2.60
2023-01-02T10:34:21.106Z,2.50
2023-01-02T10:36:49.910Z,2.70
2023-01-02T10:39:22.190Z,2.70
2023-01-02T10:41:51.347Z,2.70
2023-01-02T10:44:23.968Z,2.70
2023-01-02T10:46:52.190Z,2.70
2023-01-02T10:49:21.194Z,2.60
2023-01-02T10:51:51.227Z,2.70
2023-01-02T10:54:19.461Z,2.70
2023-01-02T10:56:49.929Z,2.60
2023-01-02T10:59:21.024Z,2.60
2023-01-02T11:01:55.224Z,2.70
2023-01-02T11:04:25.549Z,2.70
2023-01-02T11:06:58.367Z,2.70
2023-01-02T11:09:28.303Z,2.90
2023-01-02T11:11:57.365Z,2.80
2023-01-02T11:14:28.733Z,2.80
2023-01-02T11:17:03.400Z,2.70
2023-01-02T11:19:31.865Z,2.70
2023-01-02T11:22:00.043Z,2.80
2023-01-02T11:24:28.845Z,2.80
2023-01-02T11:26:58.726Z,2.80
2023-01-02T11:29:29.987Z,2.90
2023-01-02T11:32:00.123Z,2.90
2023-01-02T11:34:33.065Z,2.80
2023-01-02T11:37:06.030Z,2.80
2023-01-02T11:39:35.144Z,2.80
2023-01-02T11:42:35.587Z,2.90
2023-01-02T11:45:08.268Z,2.80
2023-01-02T11:47:38.721Z,2.80
2023-01-02T11:50:08.673Z,2.80
2023-01-02T11:52:39.563Z,2.90
2023-01-02T11:55:11.870Z,2.80
2023-01-02T11:57:42.875Z,2.80
2023-01-02T12:00:13.045Z,2.80
2023-01-02T12:02:42.956Z,2.80
2023-01-02T12:05:14.598Z,2.80
2023-01-02T12:07:44.679Z,2.80
2023-01-02T12:10:28.920Z,2.80
2023-01-02T12:13:03.364Z,2.80
2023-01-02T12:15:49.395Z,2.80
2023-01-02T12:18:24.344Z,2.80
2023-01-02T12:20:56.834Z,2.80
2023-01-02T12:23:37.011Z,2.90
2023-01-02T12:26:09.830Z,2.80
2023-01-02T12:28:46.472Z,2.80
2023-01-02T12:31:21.917Z,2.80
2023-01-02T12:33:54.985Z,2.80
2023-01-02T12:36:37.875Z,2.80
2023-01-02T12:39:13.424Z,2.80
2023-01-02T12:42:01.740Z,2.90
2023-01-02T12:44:43.608Z,2.80
2023-01-02T12:47:20.728Z,2.90
2023-01-02T12:49:56.488Z,2.80
2023-01-02T12:52:38.493Z,2.80
2023-01-02T12:55:17.131Z,2.80
2023-01-02T12:57:49.404Z,2.80
2023-01-02T13:00:22.782Z,2.80
2023-01-02T13:03:01.093Z,2.80
2023-01-02T13:05:33.291Z,2.80
2023-01-02T13:08:04.836Z,2.80
2023-01-02T13:10:33.804Z,2.70
2023-01-02T13:13:02.478Z,2.80
2023-01-02T13:15:32.125Z,2.80
2023-01-02T13:18:04.971Z,2.80
2023-01-02T13:20:38.522Z,2.70
2023-01-02T13:23:14.086Z,2.70
2023-01-02T13:25:46.087Z,2.80
2023-01-02T13:28:14.897Z,2.80
2023-01-02T13:30:48.014Z,2.80
2023-01-02T13:33:24.375Z,2.70
2023-01-02T13:35:52.811Z,2.80
2023-01-02T13:38:23.719Z,2.80
2023-01-02T13:40:58.599Z,2.80
2023-01-02T13:43:28.730Z,2.80
2023-01-02T13:45:57.423Z,2.80
2023-01-02T13:48:30.836Z,2.80
2023-01-02T13:51:00.308Z,2.80
2023-01-02T13:53:31.372Z,2.80
2023-01-02T13:56:03.685Z,2.70
2023-01-02T13:58:42.355Z,2.70
2023-01-02T14:01:43.705Z,2.70
2023-01-02T14:04:32.863Z,2.70
2023-01-02T14:07:22.065Z,2.60
2023-01-02T14:10:08.540Z,2.60
2023-01-02T14:12:41.232Z,2.60
2023-01-02T14:15:17.033Z,2.60
2023-01-02T14:17:49.272Z,2.60
2023-01-02T14:20:21.880Z,2.70
2023-01-02T14:22:50.738Z,2.60
2023-01-02T14:25:23.145Z,2.50
2023-01-02T14:27:52.778Z,2.50
2023-01-02T14:30:24.030Z,2.40
2023-01-02T14:32:53.533Z,2.40
2023-01-02T14:35:26.297Z,2.40
2023-01-02T14:37:55.732Z,2.50
2023-01-02T14:40:38.917Z,2.40
2023-01-02T14:43:27.812Z,2.40
2023-01-02T14:45:59.204Z,2.30
2023-01-02T14:48:31.786Z,2.30
2023-01-02T14:51:06.310Z,2.30
2023-01-02T14:53:37.358Z,2.30
2023-01-02T14:56:11.984Z,2.30
2023-01-02T14:58:41.797Z,2.20
2023-01-02T15:01:10.373Z,2.20
2023-01-02T15:03:44.148Z,2.20
2023-01-02T15:06:15.899Z,2.20
2023-01-02T15:08:49.385Z,2.20
2023-01-02T15:11:37.580Z,2.20
2023-01-02T15:14:06.693Z,2.10
2023-01-02T15:16:40.866Z,2.10
2023-01-02T15:19:16.044Z,2.10
2023-01-02T15:21:44.389Z,2.10
2023-01-02T15:24:20.437Z,2.10
2023-01-02T15:26:50.349Z,2.10
2023-01-02T15:29:22.767Z,2.10
2023-01-02T15:31:54.999Z,2.10
2023-01-02T15:34:27.768Z,2.00
2023-01-02T15:36:56.753Z,2.00
2023-01-02T15:39:30.747Z,2.00
2023-01-02T15:42:06.603Z,1.90
2023-01-02T15:44:57.845Z,1.90
2023-01-02T15:47:28.376Z,2.00
2023-01-02T15:49:57.715Z,2.00
2023-01-02T15:52:27.069Z,2.00
2023-01-02T15:54:55.813Z,2.00
2023-01-02T15:57:27.395Z,2.00
2023-01-02T15:59:55.892Z,2.00
2023-01-02T16:02:34.579Z,2.00
2023-01-02T16:05:10.684Z,2.00
2023-01-02T16:07:39.173Z,1.90
2023-01-02T16:10:17.329Z,1.90
2023-01-02T16:12:50.924Z,1.90
2023-01-02T16:15:20.744Z,1.90
2023-01-02T16:17:49.279Z,2.00
2023-01-02T16:20:19.159Z,2.10
2023-01-02T16:22:48.926Z,2.10
2023-01-02T16:25:19.056Z,2.10
2023-01-02T16:27:53.610Z,2.10
2023-01-02T16:30:33.032Z,2.00
2023-01-02T16:33:02.150Z,2.00
2023-01-02T16:35:32.763Z,2.00
2023-01-02T16:38:01.456Z,2.00
2023-01-02T16:41:00.038Z,2.00
2023-01-02T16:43:36.747Z,1.90
2023-01-02T16:46:10.283Z,1.90
2023-01-02T16:48:39.817Z,1.90
2023-01-02T16:51:08.023Z,1.90
2023-01-02T16:53:36.207Z,1.90
2023-01-02T16:56:04.730Z,1.90
2023-01-02T16:58:34.425Z,1.80
2023-01-02T17:01:02.636Z,1.80
2023-01-02T17:03:30.967Z,1.80
2023-01-02T17:06:01.278Z,1.90
2023-01-02T17:08:31.398Z,1.80
2023-01-02T17:10:59.950Z,1.80
2023-01-02T17:13:28.370Z,1.80
2023-01-02T17:15:58.517Z,1.80
2023-01-02T17:18:26.988Z,1.80
2023-01-02T17:20:55.086Z,1.70
2023-01-02T17:23:23.365Z,1.80
2023-01-02T17:25:54.256Z,1.80
2023-01-02T17:28:22.415Z,2.00
2023-01-02T17:30:50.824Z,2.10
2023-01-02T17:33:20.876Z,2.20
2023-01-02T17:35:49.506Z,2.20
2023-01-02T17:38:17.995Z,2.20
2023-01-02T17:40:46.217Z,2.20
2023-01-02T17:43:14.355Z,2.20
2023-01-02T17:45:43.090Z,2.10
2023-01-02T17:48:14.173Z,2.10
2023-01-02T17:50:45.959Z,2.20
2023-01-02T17:53:14.107Z,2.10
2023-01-02T17:55:42.286Z,2.00
2023-01-02T17:58:10.603Z,1.90
2023-01-02T18:00:38.867Z,1.70
2023-01-02T18:03:07.141Z,1.60
2023-01-02T18:05:36.681Z,1.50
2023-01-02T18:08:06.967Z,1.40
2023-01-02T18:10:36.954Z,1.40
2023-01-02T18:13:06.660Z,1.30
2023-01-02T18:15:34.850Z,1.30
2023-01-02T18:18:07.883Z,1.30
2023-01-02T18:20:36.078Z,1.20
2023-01-02T18:23:07.151Z,1.20
2023-01-02T18:25:36.743Z,1.20
2023-01-02T18:28:14.183Z,1.10
2023-01-02T18:30:42.846Z,1.20
2023-01-02T18:33:13.934Z,1.20
2023-01-02T18:35:58.671Z,1.10
2023-01-02T18:38:30.277Z,1.00
2023-01-02T18:41:00.267Z,1.00
2023-01-02T18:43:29.456Z,1.00
2023-01-02T18:45:58.800Z,0.90
2023-01-02T18:48:27.127Z,0.80
2023-01-02T18:50:57.925Z,0.80
2023-01-02T18:53:29.718Z,0.70
2023-01-02T18:56:01.131Z,0.60
2023-01-02T18:58:38.303Z,0.60
2023-01-02T19:01:18.870Z,0.50
2023-01-02T19:03:48.149Z,0.50
2023-01-02T19:06:18.438Z,0.60
2023-01-02T19:08:46.750Z,0.50
2023-01-02T19:11:35.578Z,0.60
2023-01-02T19:14:04.020Z,0.50
2023-01-02T19:16:34.881Z,0.50
2023-01-02T19:19:04.070Z,0.30
2023-01-02T19:21:33.435Z,0.30
2023-01-02T19:24:03.713Z,0.50
2023-01-02T19:26:35.219Z,0.40
2023-01-02T19:29:08.295Z,0.40
2023-01-02T19:31:41.316Z,0.40
2023-01-02T19:34:20.030Z,0.40
2023-01-02T19:36:48.127Z,0.20
2023-01-02T19:39:24.661Z,0.40
2023-01-02T19:42:12.089Z,0.40
2023-01-02T19:44:40.427Z,0.40
2023-01-02T19:47:08.616Z,0.40
2023-01-02T19:49:37.480Z,0.30
2023-01-02T19:52:06.686Z,0.30
2023-01-02T19:54:34.968Z,0.30
2023-01-02T19:57:04.836Z,0.20
2023-01-02T19:59:35.041Z,0.30
2023-01-02T20:02:07.131Z,0.30
2023-01-02T20:04:35.494Z,0.40
2023-01-02T20:07:03.723Z,0.30
2023-01-02T20:09:32.370Z,0.30
2023-01-02T20:12:18.269Z,0.30
2023-01-02T20:14:48.099Z,0.30
2023-01-02T20:17:16.234Z,0.40
2023-01-02T20:19:44.454Z,0.40
2023-01-02T20:22:12.913Z,0.30
2023-01-02T20:24:41.070Z,0.40
2023-01-02T20:27:09.465Z,0.30
2023-01-02T20:29:37.763Z,0.30
2023-01-02T20:32:07.756Z,0.40
2023-01-02T20:34:35.896Z,0.40
2023-01-02T20:37:04.116Z,0.40
2023-01-02T20:39:32.361Z,0.40
2023-01-02T20:42:00.530Z,0.40
2023-01-02T20:44:28.831Z,0.50
2023-01-02T20:46:57.476Z,0.40
2023-01-02T20:49:28.515Z,0.40
2023-01-02T20:51:56.731Z,0.50
2023-01-02T20:54:25.206Z,0.50
2023-01-02T20:56:53.658Z,0.50
2023-01-02T20:59:22.226Z,0.50
2023-01-02T21:01:51.711Z,0.50
2023-01-02T21:04:22.754Z,0.50
2023-01-02T21:06:57.585Z,0.50
2023-01-02T21:09:25.790Z,0.60
2023-01-02T21:11:54.183Z,0.60
2023-01-02T21:14:22.302Z,0.60
2023-01-02T21:16:50.599Z,0.60
2023-01-02T21:19:18.725Z,0.60
2023-01-02T21:21:46.915Z,0.60
2023-01-02T21:24:16.622Z,0.60
2023-01-02T21:26:44.807Z,0.60
2023-01-02T21:29:12.970Z,0.60
2023-01-02T21:31:41.336Z,0.60
2023-01-02T21:34:10.106Z,0.60
2023-01-02T21:36:38.235Z,0.60
2023-01-02T21:39:06.682Z,0.60
2023-01-02T21:41:53.685Z,0.60
2023-01-02T21:44:22.039Z,0.60
2023-01-02T21:46:50.219Z,0.60
2023-01-02T21:49:18.400Z,0.60
2023-01-02T21:51:46.780Z,0.60
2023-01-02T21:54:15.081Z,0.60
2023-01-02T21:56:44.630Z,0.60
2023-01-02T21:59:12.875Z,0.50
2023-01-02T22:01:41.190Z,0.60
2023-01-02T22:04:09.496Z,0.60
2023-01-02T22:06:57.118Z,0.60
2023-01-02T22:09:29.421Z,0.60
2023-01-02T22:11:59.065Z,0.60
2023-01-02T22:14:28.224Z,0.60
2023-01-02T22:16:56.734Z,0.60
2023-01-02T22:19:25.314Z,0.60
2023-01-02T22:21:53.874Z,0.60
2023-01-02T22:24:23.494Z,0.60
2023-01-02T22:26:52.285Z,0.60
2023-01-02T22:29:29.239Z,0.60
2023-01-02T22:32:06.728Z,0.60
2023-01-02T22:34:36.284Z,0.70
2023-01-02T22:37:06.512Z,0.70
2023-01-02T22:39:34.615Z,0.70
2023-01-02T22:42:58.292Z,0.70
2023-01-02T22:45:14.199Z,0.70
2023-01-02T22:47:42.620Z,0.70
2023-01-02T22:50:15.959Z,0.80
2023-01-02T22:52:44.160Z,0.80
2023-01-02T22:55:16.999Z,0.90
2023-01-02T22:57:51.474Z,1.00
2023-01-02T23:00:23.634Z,0.90
2023-01-02T23:02:51.776Z,1.00
2023-01-02T23:05:22.860Z,0.90
2023-01-02T23:07:51.387Z,1.00
2023-01-02T23:10:19.818Z,1.00
2023-01-02T23:12:48.157Z,1.00
2023-01-02T23:15:16.355Z,1.00
2023-01-02T23:18:03.275Z,1.00
2023-01-02T23:20:31.491Z,1.10
2023-01-02T23:22:59.833Z,1.10
2023-01-02T23:25:28.129Z,1.20
2023-01-02T23:27:56.272Z,1.20
2023-01-02T23:30:27.393Z,1.10
2023-01-02T23:32:58.104Z,1.10
2023-01-02T23:35:26.459Z,1.10
2023-01-02T23:37:54.629Z,1.20
2023-01-02T23:40:22.800Z,1.20
2023-01-02T23:42:51.076Z,1.20
2023-01-02T23:45:19.213Z,1.30
2023-01-02T23:47:47.444Z,1.20
2023-01-02T23:50:19.859Z,1.30
2023-01-02T23:52:48.210Z,1.30
2023-01-02T23:55:16.472Z,1.30
2023-01-02T23:57:44.738Z,1.30
